Frugy — FVQF — position and weather

sailwx.info

Track history (hours):
 
Tides and Currents Weather Stations Pressure Air Temp Water Temp Dewpoint Dewpoint Depression Visibility Wind Speed Wind Dir Waves Ship Positions

Frugy

Last reported at 2018-Feb-23 23:45 UTC. Time now 2018-Feb-24 14:38 UTC.
Position N 47°50' W 004°10'.

Length 16 m.

Type: Fishing. MMSI: 228218000.

Date/timePositionNaut miles runAvg speedWind from/ knotsBaromVisibWave heightAir tempDewpointWater temp
2018-Feb-23 23:45N 47°50' W 004°10'2 7.0
2018-Feb-23 23:31N 47°50' W 004°08'7 8.3
2018-Feb-23 22:38N 47°51' W 003°57'1 8.4
2018-Feb-23 22:29N 47°51' W 003°56'6 3.7
2018-Feb-23 20:48N 47°45' W 003°53'11 8.4
2018-Feb-23 19:28N 47°35' W 003°49'4 8.4
2018-Feb-23 18:59N 47°31' W 003°47'2 4.4
2018-Feb-23 18:30N 47°29' W 003°46'11 0.8
2018-Feb-23 04:43N 47°39' W 003°52'6 8.0
2018-Feb-23 04:01N 47°45' W 003°54'1 8.0
2018-Feb-23 03:56N 47°45' W 003°54'4 8.1
2018-Feb-23 03:29N 47°49' W 003°55'9 0.4
2018-Feb-22 02:53N 47°39' W 003°56'5 8.2
2018-Feb-22 02:13N 47°45' W 003°55'3 8.3
2018-Feb-22 01:54N 47°47' W 003°55'4 8.5
2018-Feb-22 01:28N 47°51' W 003°56'14 0.3
2018-Feb-20 05:58N 47°37' W 003°55'0 0.7
2018-Feb-20 05:16N 47°38' W 003°55'0 0.8
2018-Feb-20 04:47N 47°37' W 003°54'5 4.5
2018-Feb-20 03:44N 47°42' W 003°55'2 7.1
2018-Feb-20 03:27N 47°44' W 003°55'3 7.2
2018-Feb-20 02:58N 47°48' W 003°55'4 6.9
2018-Feb-20 02:24N 47°51' W 003°56'23 4.0
2018-Feb-19 20:36N 47°29' W 004°00'0 3.5
2018-Feb-19 20:29N 47°28' W 003°60'19 1.1
2018-Feb-19 03:46N 47°47' W 003°54'2 5.2
2018-Feb-19 03:21N 47°49' W 003°55'2 5.6
2018-Feb-19 03:00N 47°51' W 003°55'18 4.4
2018-Feb-18 22:54N 47°33' W 003°55'7 3.3
2018-Feb-18 20:48N 47°27' W 003°49'8 3.2
2018-Feb-18 18:22N 47°20' W 003°43'1 0.6
2018-Feb-18 16:18N 47°20' W 003°41'1 0.1
2018-Feb-18 06:04N 47°21' W 003°42'28 0.6
2018-Feb-16 07:30N 47°27' W 004°22'4 8.8
2018-Feb-16 07:00N 47°30' W 004°18'7 8.8
2018-Feb-16 06:13N 47°36' W 004°13'5 8.6
2018-Feb-16 05:39N 47°40' W 004°09'3 8.5
2018-Feb-16 05:16N 47°43' W 004°05'5 8.5
2018-Feb-16 04:42N 47°46' W 004°01'2 8.7
2018-Feb-16 04:26N 47°48' W 003°59'4 8.6
2018-Feb-16 03:58N 47°52' W 003°56'29 1.3
2018-Feb-15 05:13N 47°29' W 004°21'2 8.2
2018-Feb-15 05:00N 47°30' W 004°20'10 8.0
2018-Feb-15 03:44N 47°40' W 004°14'8 7.8
2018-Feb-15 02:43N 47°47' W 004°09'2 7.7
2018-Feb-15 02:25N 47°49' W 004°09'  
Track history (hours):
 
Tides and Currents Weather Stations Pressure Air Temp Water Temp Dewpoint Dewpoint Depression Visibility Wind Speed Wind Dir Waves Ship Positions

Frugy

Last reported at 2018-Feb-23 23:45 UTC. Time now 2018-Feb-24 14:38 UTC.
Position N 47°50' W 004°10'.

Length 16 m.

Type: Fishing. MMSI: 228218000.

Date/timePositionNaut miles runAvg speedWind from/ knotsBaromVisibWave heightAir tempDewpointWater temp
2018-Feb-23 23:45N 47°50' W 004°10'2 7.0
2018-Feb-23 23:31N 47°50' W 004°08'7 8.3
2018-Feb-23 22:38N 47°51' W 003°57'1 8.4
2018-Feb-23 22:29N 47°51' W 003°56'6 3.7
2018-Feb-23 20:48N 47°45' W 003°53'11 8.4
2018-Feb-23 19:28N 47°35' W 003°49'4 8.4
2018-Feb-23 18:59N 47°31' W 003°47'2 4.4
2018-Feb-23 18:30N 47°29' W 003°46'11 0.8
2018-Feb-23 04:43N 47°39' W 003°52'6 8.0
2018-Feb-23 04:01N 47°45' W 003°54'1 8.0
2018-Feb-23 03:56N 47°45' W 003°54'4 8.1
2018-Feb-23 03:29N 47°49' W 003°55'9 0.4
2018-Feb-22 02:53N 47°39' W 003°56'5 8.2
2018-Feb-22 02:13N 47°45' W 003°55'3 8.3
2018-Feb-22 01:54N 47°47' W 003°55'4 8.5
2018-Feb-22 01:28N 47°51' W 003°56'14 0.3
2018-Feb-20 05:58N 47°37' W 003°55'0 0.7
2018-Feb-20 05:16N 47°38' W 003°55'0 0.8
2018-Feb-20 04:47N 47°37' W 003°54'5 4.5
2018-Feb-20 03:44N 47°42' W 003°55'2 7.1
2018-Feb-20 03:27N 47°44' W 003°55'3 7.2
2018-Feb-20 02:58N 47°48' W 003°55'4 6.9
2018-Feb-20 02:24N 47°51' W 003°56'23 4.0
2018-Feb-19 20:36N 47°29' W 004°00'0 3.5
2018-Feb-19 20:29N 47°28' W 003°60'19 1.1
2018-Feb-19 03:46N 47°47' W 003°54'2 5.2
2018-Feb-19 03:21N 47°49' W 003°55'2 5.6
2018-Feb-19 03:00N 47°51' W 003°55'18 4.4
2018-Feb-18 22:54N 47°33' W 003°55'7 3.3
2018-Feb-18 20:48N 47°27' W 003°49'8 3.2
2018-Feb-18 18:22N 47°20' W 003°43'1 0.6
2018-Feb-18 16:18N 47°20' W 003°41'1 0.1
2018-Feb-18 06:04N 47°21' W 003°42'28 0.6
2018-Feb-16 07:30N 47°27' W 004°22'4 8.8
2018-Feb-16 07:00N 47°30' W 004°18'7 8.8
2018-Feb-16 06:13N 47°36' W 004°13'5 8.6
2018-Feb-16 05:39N 47°40' W 004°09'3 8.5
2018-Feb-16 05:16N 47°43' W 004°05'5 8.5
2018-Feb-16 04:42N 47°46' W 004°01'2 8.7
2018-Feb-16 04:26N 47°48' W 003°59'4 8.6
2018-Feb-16 03:58N 47°52' W 003°56'29 1.3
2018-Feb-15 05:13N 47°29' W 004°21'2 8.2
2018-Feb-15 05:00N 47°30' W 004°20'10 8.0
2018-Feb-15 03:44N 47°40' W 004°14'8 7.8
2018-Feb-15 02:43N 47°47' W 004°09'2 7.7
2018-Feb-15 02:25N 47°49' W 004°09'  

Dump ship's entire track history